Flight Track Log - Related Links

Times and Time Zones

All times are in EDT time to prevent confusion due to time zone crossing. See the UAL289 flight status page for this flight to view local times or setup timezone preferences in your user account.

Time Position Orientation Groundspeed Altitude Reporting Facility
EDT Latitude Longitude Course Direction KTS MPH feet Rate Location/Type
Sun 01:03:12 PM 40.7833 -73.8667 27° Northeast 130 150 1,100  Level New York TRACON
Sun 01:04:12 PM 40.8333 -73.8333 27° Northeast 184 212 3,200 2,550 Climbing New York TRACON
Sun 01:05:12 PM 40.8833 -73.8333 360° North 230 265 6,200 3,100 Climbing New York TRACON
Sun 01:06:12 PM 40.9167 -73.9000 304° West 263 303 9,400 2,350 Climbing New York TRACON
Sun 01:07:12 PM 40.9500 -73.9833 298° West 303 349 10,900 2,350 Climbing New York TRACON
Sun 01:08:12 PM 40.9833 -74.1167 288° West 350 403 14,100 1,789 Climbing New York TRACON
Sun 01:10:03 PM 41.0433 -74.3339 290° West 357 411 16,000 659 Climbing New York Center
Sun 01:11:05 PM 41.0750 -74.4539 289° West 352 405 16,000  Level New York Center
Sun 01:12:03 PM 41.1028 -74.5600 289° West 347 399 16,000 756 Level New York Center
Sun 01:13:04 PM 41.1358 -74.6967 288° West 352 405 17,500 1,756 Climbing New York Center
Sun 01:14:06 PM 41.1864 -74.8072 301° West 352 405 19,600 2,380 Climbing New York Center
Sun 01:15:05 PM 41.2344 -74.9203 300° West 352 405 22,300 2,250 Climbing New York Center
Sun 01:16:06 PM 41.2825 -75.0339 299° West 357 411 24,100 1,866 Climbing New York Center
Sun 01:17:04 PM 41.3286 -75.1389 300° West 363 418 26,000 1,815 Climbing New York Center
Sun 01:18:05 PM 41.3806 -75.2583 300° West 368 423 27,700 1,438 Climbing New York Center
Sun 01:19:05 PM 41.4319 -75.3808 299° West 368 423 28,900 1,250 Climbing New York Center
Sun 01:20:05 PM 41.4831 -75.5117 298° West 378 435 30,200 1,261 Climbing New York Center
Sun 01:21:04 PM 41.5269 -75.6617 291° West 388 447 31,400 1,462 Climbing New York Center
Sun 01:22:04 PM 41.5633 -75.7864 291° West 400 460 33,100 1,563 Climbing New York Center
Sun 01:23:03 PM 41.6014 -75.9194 291° West 393 452 34,500 1,150 Climbing New York Center
Sun 01:24:04 PM 41.6411 -76.0558 291° West 393 452 35,400 984 Climbing New York Center
Sun 01:25:05 PM 41.6767 -76.1919 289° West 393 452 36,500 843 Climbing New York Center
Sun 01:26:05 PM 41.7164 -76.3286 291° West 398 458 37,100 700 Climbing New York Center
Sun 01:27:05 PM 41.7533 -76.4681 290° West 398 458 37,900 348 Climbing New York Center
Sun 01:28:40 PM 41.8194 -76.7072 290° West 400 460 38,000 39 Climbing Cleveland Center
Sun 01:29:40 PM 41.8597 -76.8525 290° West 400 460 38,000  Level Cleveland Center
Sun 01:30:40 PM 41.8997 -76.9925 291° West 400 460 38,000  Level Cleveland Center
Sun 01:31:40 PM 41.9375 -77.1328 290° West 400 460 38,000  Level Cleveland Center
Sun 01:32:40 PM 41.9750 -77.2733 290° West 400 460 38,000  Level Cleveland Center
Sun 01:33:40 PM 42.0122 -77.4167 289° West 405 466 38,000  Level Cleveland Center
Sun 01:34:40 PM 42.0514 -77.5572 291° West 405 466 38,000  Level Cleveland Center
Sun 01:35:40 PM 42.0908 -77.7039 290° West 405 466 38,000  Level Cleveland Center
Sun 01:36:40 PM 42.1275 -77.8450 289° West 405 466 38,000  Level Cleveland Center
Sun 01:37:40 PM 42.1642 -77.9892 289° West 405 466 38,000  Level Cleveland Center
Sun 01:38:40 PM 42.2028 -78.1333 290° West 405 466 38,000  Level Cleveland Center
Sun 01:39:40 PM 42.2392 -78.2778 289° West 405 466 38,000  Level Cleveland Center
Sun 01:40:40 PM 42.2775 -78.4222 290° West 405 466 38,000  Level Cleveland Center
Sun 01:41:40 PM 42.3133 -78.5672 289° West 405 466 38,000  Level Cleveland Center
Sun 01:42:40 PM 42.3511 -78.7064 290° West 400 460 38,000  Level Cleveland Center
Sun 01:43:40 PM 42.3847 -78.8517 287° West 400 460 38,000  Level Cleveland Center
Sun 01:44:40 PM 42.4222 -78.9942 290° West 400 460 38,000  Level Cleveland Center
Sun 01:45:40 PM 42.4594 -79.1367 290° West 405 466 38,000  Level Cleveland Center
Sun 01:46:40 PM 42.4883 -79.2794 285° West 400 460 38,000  Level Cleveland Center
Sun 01:47:40 PM 42.5003 -79.4314 276° West 400 460 38,000  Level Cleveland Center
Sun 01:48:40 PM 42.5058 -79.5806 273° West 400 460 38,000  Level Cleveland Center
Sun 01:49:40 PM 42.5156 -79.7297 275° West 400 460 38,000  Level Cleveland Center
Sun 01:50:40 PM 42.5228 -79.8789 274° West 405 466 38,000  Level Cleveland Center
Sun 01:51:40 PM 42.5256 -80.0281 271° West 405 466 38,000  Level Cleveland Center
Sun 01:52:40 PM 42.5325 -80.1775 274° West 398 458 38,000  Level Cleveland Center
Sun 01:53:40 PM 42.5369 -80.3267 272° West 393 452 38,000  Level Cleveland Center
Sun 01:54:40 PM 42.5456 -80.4761 275° West 398 458 38,000  Level Cleveland Center
Sun 01:55:40 PM 42.5497 -80.6256 272° West 405 466 38,000  Level Cleveland Center
Sun 01:56:40 PM 42.5558 -80.7778 273° West 400 460 38,000  Level Cleveland Center
Sun 01:57:40 PM 42.5619 -80.9242 273° West 402 463 38,000  Level Cleveland Center
Sun 01:58:40 PM 42.5675 -81.0597 273° West 402 463 38,000  Level Cleveland Center
Sun 01:59:40 PM 42.5711 -81.2092 272° West 408 470 38,000  Level Cleveland Center
Sun 02:00:40 PM 42.5764 -81.3614 273° West 402 463 38,000  Level Cleveland Center
Sun 02:01:40 PM 42.5939 -81.5111 279° West 402 463 38,000  Level Cleveland Center
Sun 02:02:40 PM 42.6197 -81.6611 283° West 412 474 38,000  Level Cleveland Center
Sun 02:03:40 PM 42.6456 -81.8053 284° West 405 466 38,000  Level Cleveland Center
Sun 02:04:40 PM 42.6731 -81.9556 284° West 405 466 38,000  Level Cleveland Center
Sun 02:05:40 PM 42.6981 -82.1058 283° West 405 466 38,000  Level Cleveland Center
Sun 02:06:40 PM 42.7231 -82.2592 283° West 416 479 38,000  Level Cleveland Center
Sun 02:07:40 PM 42.7458 -82.4094 282° West 416 479 38,000  Level Cleveland Center
Sun 02:08:40 PM 42.7558 -82.5625 275° West 416 479 38,000  Level Cleveland Center
Sun 02:09:40 PM 42.7678 -82.7156 276° West 411 473 38,000  Level Cleveland Center
Sun 02:10:40 PM 42.7794 -82.8661 276° West 411 473 38,000  Level Cleveland Center
Sun 02:11:40 PM 42.7886 -83.0247 275° West 411 473 38,000  Level Cleveland Center
Sun 02:12:40 PM 42.7978 -83.1808 275° West 411 473 38,000  Level Cleveland Center
Sun 02:13:40 PM 42.8089 -83.3314 276° West 411 473 38,000 -200 Level Cleveland Center
Sun 02:14:40 PM 42.8194 -83.4903 275° West 411 473 37,600 -700 Descending Cleveland Center
Sun 02:15:40 PM 42.8281 -83.6408 275° West 411 473 36,600 -1,000 Descending Cleveland Center
Sun 02:16:40 PM 42.8383 -83.8000 275° West 411 473 35,600 -950 Descending Cleveland Center
Sun 02:17:40 PM 42.8486 -83.9533 275° West 411 473 34,700 -1,050 Descending Cleveland Center
Sun 02:18:40 PM 42.8567 -84.1039 274° West 411 473 33,500 -1,200 Descending Cleveland Center
Sun 02:19:40 PM 42.8642 -84.2603 274° West 406 467 32,300 -750 Descending Cleveland Center
Sun 02:20:40 PM 42.8717 -84.4136 274° West 406 467 32,000 -150 Descending Cleveland Center
Sun 02:21:40 PM 42.8789 -84.5700 274° West 411 473 32,000  Level Cleveland Center
Sun 02:22:47 PM 42.8656 -84.7611 265° West 417 480 32,000  Level Chicago Center
Sun 02:23:49 PM 42.8497 -84.9178 262° West 417 480 32,000  Level Chicago Center
Sun 02:24:51 PM 42.8322 -85.0739 261° West 417 480 32,000  Level Chicago Center
Sun 02:25:53 PM 42.8156 -85.2308 262° West 418 481 32,000 -435 Level Chicago Center
Sun 02:26:55 PM 42.7983 -85.3858 261° West 416 479 31,100 -1,355 Descending Chicago Center
Sun 02:27:57 PM 42.7794 -85.5381 260° West 410 472 29,200 -1,742 Descending Chicago Center
Sun 02:28:59 PM 42.7533 -85.6794 256° West 390 449 27,500 -1,935 Descending Chicago Center
Sun 02:30:01 PM 42.7228 -85.8442 256° West 376 433 25,200 -2,032 Descending Chicago Center
Sun 02:31:03 PM 42.6994 -85.9792 257° West 369 425 23,300 -1,839 Descending Chicago Center
Sun 02:32:05 PM 42.6750 -86.1097 256° West 359 413 21,400 -1,597 Descending Chicago Center
Sun 02:33:07 PM 42.6514 -86.2372 256° West 351 404 20,000 -677 Descending Chicago Center
Sun 02:34:09 PM 42.6278 -86.3625 256° West 343 395 20,000 -435 Level Chicago Center
Sun 02:35:11 PM 42.6058 -86.4764 255° West 312 359 19,100 -919 Descending Chicago Center
Sun 02:36:13 PM 42.5861 -86.5872 256° West 302 348 18,100 -677 Descending Chicago Center
Sun 02:37:15 PM 42.5642 -86.7114 257° West 311 358 17,700 -629 Descending Chicago Center
Sun 02:38:17 PM 42.5353 -86.8186 250° West 307 353 16,800 -1,258 Descending Chicago Center
Sun 02:39:19 PM 42.5036 -86.9350 250° West 299 344 15,100 -1,645 Descending Chicago Center
Sun 02:40:21 PM 42.4761 -87.0358 250° West 290 334 13,400 -1,452 Descending Chicago Center
Sun 02:41:23 PM 42.4486 -87.1342 249° West 282 325 12,100 -1,839 Descending Chicago Center
Sun 02:42:25 PM 42.4228 -87.2264 249° West 266 306 9,600 -1,968 Descending Chicago Center
Sun 02:43:28 PM 42.3919 -87.3389 250° West 266 306 8,000 -1,248 Descending Chicago Center
Sun 02:44:30 PM 42.3661 -87.4297 249° West 253 291 7,000 -484 Descending Chicago Center
Sun 02:45:32 PM 42.3403 -87.5061 245° Southwest 227 261 7,000  Level Chicago Center
Sun 02:46:34 PM 42.3017 -87.5647 228° Southwest 211 243 7,000 -145 Level Chicago Center
Sun 02:47:36 PM 42.2547 -87.6142 218° Southwest 215 247 6,700 -677 Descending Chicago Center
Sun 02:48:38 PM 42.2081 -87.6622 217° Southwest 213 245 5,600 -1,113 Descending Chicago Center
Sun 02:49:40 PM 42.1572 -87.7200 220° Southwest 202 232 4,400 -968 Descending Chicago Center
Sun 02:50:42 PM 42.1189 -87.7619 219° Southwest 189 217 3,600 -702 Descending Chicago Center
Sun 02:51:14 PM 42.1000 -87.7833 220° Southwest 172 198 3,300 -563 Descending Chicago TRACON

Login

Don't have an account? Register now (free) for customized features, flight alerts, and more!